Fort Mitchell, Virginia
Current Conditions -  °F | °C
As of 10:15 PM on Monday 26 Jan 2015 (Local Time) from KCXE Reporting Station
Overcast Overcast  
Wind Chill: 33°   Ceiling: 600
Heat Index: 38°   Visibility: 10mi
Dew Point: 38°   Wind: 6mph
Humidity: 100%   Direction: 330°NNW
Pressure: 29.7"   Gusts: NA
Location:  36.92°N, 78.49°W
Report Text: KCXE 270315Z AUTO 33005KT 10SM OVC006 03/03 A2970 RMK AO1 T00320032
Loading
Personal Weather Stations






























Interactive Weather Map New forecast layout! Learn more

10-Day Weather Forecast

Advertisements
Track Severe Weather on mobile